sensor_id;sensor_type;location;lat;lon;timestamp;temperature;humidity
39325;DHT22;25037;49.488;9.900;2022-10-28T00:00:47;14.00;77.70
39325;DHT22;25037;49.488;9.900;2022-10-28T00:03:12;13.90;77.70
39325;DHT22;25037;49.488;9.900;2022-10-28T00:05:38;13.90;77.70
39325;DHT22;25037;49.488;9.900;2022-10-28T00:08:04;13.80;77.80
39325;DHT22;25037;49.488;9.900;2022-10-28T00:10:29;13.80;77.80
39325;DHT22;25037;49.488;9.900;2022-10-28T00:12:55;13.70;77.80
39325;DHT22;25037;49.488;9.900;2022-10-28T00:15:20;13.70;77.70
39325;DHT22;25037;49.488;9.900;2022-10-28T00:17:46;13.70;77.80
39325;DHT22;25037;49.488;9.900;2022-10-28T00:20:11;13.70;77.80
39325;DHT22;25037;49.488;9.900;2022-10-28T00:22:37;13.60;77.90
39325;DHT22;25037;49.488;9.900;2022-10-28T00:25:03;13.60;77.90
39325;DHT22;25037;49.488;9.900;2022-10-28T00:27:28;13.70;78.00
39325;DHT22;25037;49.488;9.900;2022-10-28T00:29:54;13.60;78.00
39325;DHT22;25037;49.488;9.900;2022-10-28T00:32:20;13.70;78.10
39325;DHT22;25037;49.488;9.900;2022-10-28T00:34:46;13.70;78.20
39325;DHT22;25037;49.488;9.900;2022-10-28T00:37:12;13.70;78.20
39325;DHT22;25037;49.488;9.900;2022-10-28T00:39:37;13.70;78.10
39325;DHT22;25037;49.488;9.900;2022-10-28T00:42:03;13.70;78.20
39325;DHT22;25037;49.488;9.900;2022-10-28T00:44:52;13.70;78.10
39325;DHT22;25037;49.488;9.900;2022-10-28T00:50:13;13.70;78.10
39325;DHT22;25037;49.488;9.900;2022-10-28T00:52:41;13.70;78.10
39325;DHT22;25037;49.488;9.900;2022-10-28T00:55:08;13.70;78.10
39325;DHT22;25037;49.488;9.900;2022-10-28T00:57:36;13.70;78.00
39325;DHT22;25037;49.488;9.900;2022-10-28T01:00:04;13.60;78.00
39325;DHT22;25037;49.488;9.900;2022-10-28T01:02:32;13.60;78.00
39325;DHT22;25037;49.488;9.900;2022-10-28T01:04:59;13.50;77.90
39325;DHT22;25037;49.488;9.900;2022-10-28T01:07:24;13.50;77.90
39325;DHT22;25037;49.488;9.900;2022-10-28T01:09:50;13.50;77.90
39325;DHT22;25037;49.488;9.900;2022-10-28T01:15:35;13.50;77.90
39325;DHT22;25037;49.488;9.900;2022-10-28T01:18:30;13.40;77.70
39325;DHT22;25037;49.488;9.900;2022-10-28T01:24:14;13.30;77.70
39325;DHT22;25037;49.488;9.900;2022-10-28T01:27:08;13.30;77.70
39325;DHT22;25037;49.488;9.900;2022-10-28T01:46:30;13.10;77.60
39325;DHT22;25037;49.488;9.900;2022-10-28T01:49:08;13.10;77.70
39325;DHT22;25037;49.488;9.900;2022-10-28T01:51:46;13.10;77.70
39325;DHT22;25037;49.488;9.900;2022-10-28T01:54:14;13.00;77.70
39325;DHT22;25037;49.488;9.900;2022-10-28T01:56:45;13.00;77.70
39325;DHT22;25037;49.488;9.900;2022-10-28T01:59:16;13.00;77.80
39325;DHT22;25037;49.488;9.900;2022-10-28T02:01:42;13.00;77.80
39325;DHT22;25037;49.488;9.900;2022-10-28T02:04:07;13.00;77.80
39325;DHT22;25037;49.488;9.900;2022-10-28T02:06:33;13.00;77.90
39325;DHT22;25037;49.488;9.900;2022-10-28T02:12:04;13.10;77.90
39325;DHT22;25037;49.488;9.900;2022-10-28T02:15:06;13.10;78.00
39325;DHT22;25037;49.488;9.900;2022-10-28T02:25:55;13.20;78.20
39325;DHT22;25037;49.488;9.900;2022-10-28T02:28:47;13.20;78.20
39325;DHT22;25037;49.488;9.900;2022-10-28T02:31:25;13.20;78.30
39325;DHT22;25037;49.488;9.900;2022-10-28T02:33:58;13.30;78.30
39325;DHT22;25037;49.488;9.900;2022-10-28T02:36:27;13.30;78.20
39325;DHT22;25037;49.488;9.900;2022-10-28T02:38:55;13.30;78.10
39325;DHT22;25037;49.488;9.900;2022-10-28T02:44:06;13.30;78.30
39325;DHT22;25037;49.488;9.900;2022-10-28T02:46:34;13.30;78.40
39325;DHT22;25037;49.488;9.900;2022-10-28T02:49:05;13.30;78.40
39325;DHT22;25037;49.488;9.900;2022-10-28T02:51:40;13.30;78.30
39325;DHT22;25037;49.488;9.900;2022-10-28T02:54:15;13.40;78.30
39325;DHT22;25037;49.488;9.900;2022-10-28T02:56:53;13.40;78.30
39325;DHT22;25037;49.488;9.900;2022-10-28T02:59:23;13.40;78.30
39325;DHT22;25037;49.488;9.900;2022-10-28T03:01:49;13.40;78.20
39325;DHT22;25037;49.488;9.900;2022-10-28T03:04:14;13.30;78.20
39325;DHT22;25037;49.488;9.900;2022-10-28T03:06:40;13.40;78.10
39325;DHT22;25037;49.488;9.900;2022-10-28T03:09:05;13.40;78.10
39325;DHT22;25037;49.488;9.900;2022-10-28T03:11:31;13.30;78.00
39325;DHT22;25037;49.488;9.900;2022-10-28T03:13:56;13.30;78.10
39325;DHT22;25037;49.488;9.900;2022-10-28T03:16:22;13.30;78.00
39325;DHT22;25037;49.488;9.900;2022-10-28T03:18:48;13.20;78.00
39325;DHT22;25037;49.488;9.900;2022-10-28T03:21:13;13.20;78.10
39325;DHT22;25037;49.488;9.900;2022-10-28T03:23:39;13.20;78.10
39325;DHT22;25037;49.488;9.900;2022-10-28T03:26:04;13.20;78.00
39325;DHT22;25037;49.488;9.900;2022-10-28T03:28:30;13.20;78.00
39325;DHT22;25037;49.488;9.900;2022-10-28T03:30:55;13.10;78.00
39325;DHT22;25037;49.488;9.900;2022-10-28T03:33:21;13.10;77.90
39325;DHT22;25037;49.488;9.900;2022-10-28T03:35:46;13.10;77.90
39325;DHT22;25037;49.488;9.900;2022-10-28T03:38:12;13.10;78.00
39325;DHT22;25037;49.488;9.900;2022-10-28T03:40:37;13.10;77.90
39325;DHT22;25037;49.488;9.900;2022-10-28T03:43:03;13.00;77.90
39325;DHT22;25037;49.488;9.900;2022-10-28T03:45:28;13.10;78.00
39325;DHT22;25037;49.488;9.900;2022-10-28T03:47:54;13.00;78.00
39325;DHT22;25037;49.488;9.900;2022-10-28T03:50:19;13.00;78.10
39325;DHT22;25037;49.488;9.900;2022-10-28T03:52:45;13.10;78.10
39325;DHT22;25037;49.488;9.900;2022-10-28T03:55:10;13.10;78.20
39325;DHT22;25037;49.488;9.900;2022-10-28T03:57:36;13.10;78.20
39325;DHT22;25037;49.488;9.900;2022-10-28T04:00:04;13.20;78.20
39325;DHT22;25037;49.488;9.900;2022-10-28T04:02:29;13.20;78.30
39325;DHT22;25037;49.488;9.900;2022-10-28T04:04:55;13.30;78.20
39325;DHT22;25037;49.488;9.900;2022-10-28T04:07:20;13.30;78.20
39325;DHT22;25037;49.488;9.900;2022-10-28T04:09:46;13.30;78.20
39325;DHT22;25037;49.488;9.900;2022-10-28T04:12:16;13.40;78.20
39325;DHT22;25037;49.488;9.900;2022-10-28T04:14:42;13.40;78.20
39325;DHT22;25037;49.488;9.900;2022-10-28T04:17:07;13.40;78.20
39325;DHT22;25037;49.488;9.900;2022-10-28T04:19:33;13.40;78.20
39325;DHT22;25037;49.488;9.900;2022-10-28T04:21:59;13.40;78.20
39325;DHT22;25037;49.488;9.900;2022-10-28T04:24:24;13.40;78.30
39325;DHT22;25037;49.488;9.900;2022-10-28T04:26:50;13.40;78.20
39325;DHT22;25037;49.488;9.900;2022-10-28T04:29:15;13.50;78.30
39325;DHT22;25037;49.488;9.900;2022-10-28T04:31:41;13.50;78.30
39325;DHT22;25037;49.488;9.900;2022-10-28T04:34:07;13.50;78.30
39325;DHT22;25037;49.488;9.900;2022-10-28T04:36:32;13.50;78.30
39325;DHT22;25037;49.488;9.900;2022-10-28T04:38:58;13.50;78.20
39325;DHT22;25037;49.488;9.900;2022-10-28T04:41:24;13.50;78.20
39325;DHT22;25037;49.488;9.900;2022-10-28T04:43:49;13.50;78.20
39325;DHT22;25037;49.488;9.900;2022-10-28T04:46:15;13.60;78.30
39325;DHT22;25037;49.488;9.900;2022-10-28T04:48:40;13.60;78.30
39325;DHT22;25037;49.488;9.900;2022-10-28T04:51:06;13.60;78.30
39325;DHT22;25037;49.488;9.900;2022-10-28T04:53:31;13.60;78.30
39325;DHT22;25037;49.488;9.900;2022-10-28T04:55:58;13.60;78.30
39325;DHT22;25037;49.488;9.900;2022-10-28T04:58:24;13.70;78.30
39325;DHT22;25037;49.488;9.900;2022-10-28T05:00:50;13.70;78.30
39325;DHT22;25037;49.488;9.900;2022-10-28T05:03:15;13.70;78.30
39325;DHT22;25037;49.488;9.900;2022-10-28T05:05:41;13.70;78.20
39325;DHT22;25037;49.488;9.900;2022-10-28T05:08:06;13.70;78.30
39325;DHT22;25037;49.488;9.900;2022-10-28T05:10:32;13.70;78.20
39325;DHT22;25037;49.488;9.900;2022-10-28T05:12:57;13.70;78.20
39325;DHT22;25037;49.488;9.900;2022-10-28T05:15:23;13.70;78.20
39325;DHT22;25037;49.488;9.900;2022-10-28T05:17:51;13.70;78.20
39325;DHT22;25037;49.488;9.900;2022-10-28T05:20:18;13.70;78.30
39325;DHT22;25037;49.488;9.900;2022-10-28T05:22:49;13.70;78.20
39325;DHT22;25037;49.488;9.900;2022-10-28T05:25:15;13.70;78.30
39325;DHT22;25037;49.488;9.900;2022-10-28T05:27:41;13.70;78.30
39325;DHT22;25037;49.488;9.900;2022-10-28T05:30:07;13.70;78.40
39325;DHT22;25037;49.488;9.900;2022-10-28T05:32:33;13.70;78.50
39325;DHT22;25037;49.488;9.900;2022-10-28T05:34:59;13.80;78.50
39325;DHT22;25037;49.488;9.900;2022-10-28T05:37:24;13.80;78.60
39325;DHT22;25037;49.488;9.900;2022-10-28T05:39:50;13.80;78.60
39325;DHT22;25037;49.488;9.900;2022-10-28T05:42:15;13.80;78.60
39325;DHT22;25037;49.488;9.900;2022-10-28T05:44:41;13.80;78.60
39325;DHT22;25037;49.488;9.900;2022-10-28T05:47:06;13.80;78.50
39325;DHT22;25037;49.488;9.900;2022-10-28T05:49:32;13.90;78.60
39325;DHT22;25037;49.488;9.900;2022-10-28T05:51:57;13.90;78.50
39325;DHT22;25037;49.488;9.900;2022-10-28T05:54:23;13.90;78.50
39325;DHT22;25037;49.488;9.900;2022-10-28T05:56:48;13.90;78.60
39325;DHT22;25037;49.488;9.900;2022-10-28T05:59:14;14.00;78.60
39325;DHT22;25037;49.488;9.900;2022-10-28T06:01:40;14.00;78.60
39325;DHT22;25037;49.488;9.900;2022-10-28T06:04:05;14.00;78.70
39325;DHT22;25037;49.488;9.900;2022-10-28T06:06:31;14.00;78.70
39325;DHT22;25037;49.488;9.900;2022-10-28T06:08:56;14.00;78.70
39325;DHT22;25037;49.488;9.900;2022-10-28T06:11:22;14.00;78.70
39325;DHT22;25037;49.488;9.900;2022-10-28T06:13:48;14.10;78.70
39325;DHT22;25037;49.488;9.900;2022-10-28T06:16:13;14.00;78.70
39325;DHT22;25037;49.488;9.900;2022-10-28T06:18:39;14.10;78.70
39325;DHT22;25037;49.488;9.900;2022-10-28T06:21:04;14.10;78.80
39325;DHT22;25037;49.488;9.900;2022-10-28T06:23:30;14.10;78.80
39325;DHT22;25037;49.488;9.900;2022-10-28T06:26:00;14.20;78.70
39325;DHT22;25037;49.488;9.900;2022-10-28T06:28:26;14.20;78.70
39325;DHT22;25037;49.488;9.900;2022-10-28T06:30:52;14.20;78.70
39325;DHT22;25037;49.488;9.900;2022-10-28T06:33:17;14.20;78.60
39325;DHT22;25037;49.488;9.900;2022-10-28T06:35:43;14.20;78.60
39325;DHT22;25037;49.488;9.900;2022-10-28T06:38:09;14.20;78.60
39325;DHT22;25037;49.488;9.900;2022-10-28T06:40:34;14.30;78.60
39325;DHT22;25037;49.488;9.900;2022-10-28T06:43:05;14.30;78.60
39325;DHT22;25037;49.488;9.900;2022-10-28T06:45:32;14.30;78.70
39325;DHT22;25037;49.488;9.900;2022-10-28T06:48:01;14.30;78.60
39325;DHT22;25037;49.488;9.900;2022-10-28T06:50:27;14.40;78.60
39325;DHT22;25037;49.488;9.900;2022-10-28T06:52:57;14.50;78.60
39325;DHT22;25037;49.488;9.900;2022-10-28T06:55:24;14.50;78.60
39325;DHT22;25037;49.488;9.900;2022-10-28T06:57:49;14.50;78.60
39325;DHT22;25037;49.488;9.900;2022-10-28T07:00:15;14.60;78.60
39325;DHT22;25037;49.488;9.900;2022-10-28T07:02:40;14.70;78.50
39325;DHT22;25037;49.488;9.900;2022-10-28T07:05:07;14.80;78.40
39325;DHT22;25037;49.488;9.900;2022-10-28T07:07:33;14.90;78.40
39325;DHT22;25037;49.488;9.900;2022-10-28T07:09:58;15.00;78.30
39325;DHT22;25037;49.488;9.900;2022-10-28T07:12:24;15.10;78.20
39325;DHT22;25037;49.488;9.900;2022-10-28T07:14:52;15.20;78.10
39325;DHT22;25037;49.488;9.900;2022-10-28T07:17:17;15.30;78.00
39325;DHT22;25037;49.488;9.900;2022-10-28T07:19:43;15.30;78.00
39325;DHT22;25037;49.488;9.900;2022-10-28T07:22:08;15.30;78.00
39325;DHT22;25037;49.488;9.900;2022-10-28T07:24:34;15.30;78.00
39325;DHT22;25037;49.488;9.900;2022-10-28T07:26:59;15.40;77.90
39325;DHT22;25037;49.488;9.900;2022-10-28T07:29:25;15.40;77.80
39325;DHT22;25037;49.488;9.900;2022-10-28T07:31:53;15.40;77.70
39325;DHT22;25037;49.488;9.900;2022-10-28T07:34:18;15.50;77.70
39325;DHT22;25037;49.488;9.900;2022-10-28T07:36:48;15.50;77.60
39325;DHT22;25037;49.488;9.900;2022-10-28T07:39:15;15.40;77.60
39325;DHT22;25037;49.488;9.900;2022-10-28T07:41:40;15.50;77.50
39325;DHT22;25037;49.488;9.900;2022-10-28T07:44:06;15.50;77.50
39325;DHT22;25037;49.488;9.900;2022-10-28T07:46:32;15.50;77.40
39325;DHT22;25037;49.488;9.900;2022-10-28T07:48:58;15.60;77.40
39325;DHT22;25037;49.488;9.900;2022-10-28T07:51:23;15.60;77.40
39325;DHT22;25037;49.488;9.900;2022-10-28T07:53:49;15.80;77.30
39325;DHT22;25037;49.488;9.900;2022-10-28T07:56:14;15.90;77.10
39325;DHT22;25037;49.488;9.900;2022-10-28T07:58:41;16.00;76.90
39325;DHT22;25037;49.488;9.900;2022-10-28T08:01:10;16.30;76.60
39325;DHT22;25037;49.488;9.900;2022-10-28T08:03:35;16.40;76.40
39325;DHT22;25037;49.488;9.900;2022-10-28T08:06:08;16.40;76.20
39325;DHT22;25037;49.488;9.900;2022-10-28T08:08:34;16.50;76.10
39325;DHT22;25037;49.488;9.900;2022-10-28T08:11:17;16.80;75.90
39325;DHT22;25037;49.488;9.900;2022-10-28T08:13:48;17.00;75.60
39325;DHT22;25037;49.488;9.900;2022-10-28T08:16:14;17.00;75.50
39325;DHT22;25037;49.488;9.900;2022-10-28T08:18:40;17.00;75.40
39325;DHT22;25037;49.488;9.900;2022-10-28T08:21:08;17.20;75.30
39325;DHT22;25037;49.488;9.900;2022-10-28T08:23:35;17.20;75.20
39325;DHT22;25037;49.488;9.900;2022-10-28T08:26:01;17.20;75.10
39325;DHT22;25037;49.488;9.900;2022-10-28T08:28:27;17.30;74.80
39325;DHT22;25037;49.488;9.900;2022-10-28T08:30:52;17.30;74.70
39325;DHT22;25037;49.488;9.900;2022-10-28T08:33:18;17.50;74.70
39325;DHT22;25037;49.488;9.900;2022-10-28T08:35:49;17.70;74.30
39325;DHT22;25037;49.488;9.900;2022-10-28T08:38:15;17.90;73.80
39325;DHT22;25037;49.488;9.900;2022-10-28T08:43:26;18.20;73.10
39325;DHT22;25037;49.488;9.900;2022-10-28T08:45:59;18.30;73.00
39325;DHT22;25037;49.488;9.900;2022-10-28T08:48:30;18.50;72.80
39325;DHT22;25037;49.488;9.900;2022-10-28T08:51:09;18.60;72.50
39325;DHT22;25037;49.488;9.900;2022-10-28T08:53:43;18.80;72.10
39325;DHT22;25037;49.488;9.900;2022-10-28T08:56:34;18.90;72.00
39325;DHT22;25037;49.488;9.900;2022-10-28T08:59:04;19.10;71.70
39325;DHT22;25037;49.488;9.900;2022-10-28T09:01:39;19.20;71.70
39325;DHT22;25037;49.488;9.900;2022-10-28T09:04:15;19.20;71.60
39325;DHT22;25037;49.488;9.900;2022-10-28T09:06:42;19.30;71.40
39325;DHT22;25037;49.488;9.900;2022-10-28T09:09:17;19.40;71.40
39325;DHT22;25037;49.488;9.900;2022-10-28T09:12:12;19.50;71.30
39325;DHT22;25037;49.488;9.900;2022-10-28T09:17:50;19.60;71.40
39325;DHT22;25037;49.488;9.900;2022-10-28T09:23:30;19.60;71.20
39325;DHT22;25037;49.488;9.900;2022-10-28T09:26:15;19.50;71.40
39325;DHT22;25037;49.488;9.900;2022-10-28T09:29:19;19.50;71.60
39325;DHT22;25037;49.488;9.900;2022-10-28T09:32:17;19.70;71.30
39325;DHT22;25037;49.488;9.900;2022-10-28T09:34:55;19.70;71.40
39325;DHT22;25037;49.488;9.900;2022-10-28T09:37:27;19.70;71.00
39325;DHT22;25037;49.488;9.900;2022-10-28T09:39:59;19.70;71.10
39325;DHT22;25037;49.488;9.900;2022-10-28T09:42:31;19.70;70.90
39325;DHT22;25037;49.488;9.900;2022-10-28T09:45:04;19.80;70.60
39325;DHT22;25037;49.488;9.900;2022-10-28T09:47:40;19.90;70.60
39325;DHT22;25037;49.488;9.900;2022-10-28T09:50:16;20.00;70.60
39325;DHT22;25037;49.488;9.900;2022-10-28T09:53:02;20.00;70.60
39325;DHT22;25037;49.488;9.900;2022-10-28T09:55:29;20.00;70.60
39325;DHT22;25037;49.488;9.900;2022-10-28T09:57:55;20.20;70.70
39325;DHT22;25037;49.488;9.900;2022-10-28T10:00:21;20.40;70.60
39325;DHT22;25037;49.488;9.900;2022-10-28T10:02:49;20.50;70.50
39325;DHT22;25037;49.488;9.900;2022-10-28T10:05:19;20.60;70.50
39325;DHT22;25037;49.488;9.900;2022-10-28T10:07:54;20.80;70.50
39325;DHT22;25037;49.488;9.900;2022-10-28T10:10:30;21.00;70.20
39325;DHT22;25037;49.488;9.900;2022-10-28T10:13:00;21.30;69.90
39325;DHT22;25037;49.488;9.900;2022-10-28T10:15:39;21.50;69.10
39325;DHT22;25037;49.488;9.900;2022-10-28T10:18:13;21.70;68.70
39325;DHT22;25037;49.488;9.900;2022-10-28T10:20:50;21.80;68.50
39325;DHT22;25037;49.488;9.900;2022-10-28T10:23:35;22.00;67.80
39325;DHT22;25037;49.488;9.900;2022-10-28T10:26:07;22.20;67.50
39325;DHT22;25037;49.488;9.900;2022-10-28T10:28:36;22.30;66.80
39325;DHT22;25037;49.488;9.900;2022-10-28T10:31:05;22.50;66.40
39325;DHT22;25037;49.488;9.900;2022-10-28T10:33:36;22.60;66.00
39325;DHT22;25037;49.488;9.900;2022-10-28T10:38:36;22.80;64.80
39325;DHT22;25037;49.488;9.900;2022-10-28T10:41:02;22.90;64.40
39325;DHT22;25037;49.488;9.900;2022-10-28T10:43:35;23.00;63.60
39325;DHT22;25037;49.488;9.900;2022-10-28T10:48:31;23.50;62.30
39325;DHT22;25037;49.488;9.900;2022-10-28T10:51:07;23.70;61.60
39325;DHT22;25037;49.488;9.900;2022-10-28T10:53:34;23.80;61.20
39325;DHT22;25037;49.488;9.900;2022-10-28T10:56:05;24.00;61.80
39325;DHT22;25037;49.488;9.900;2022-10-28T10:58:38;24.20;62.00
39325;DHT22;25037;49.488;9.900;2022-10-28T11:01:05;24.20;62.10
39325;DHT22;25037;49.488;9.900;2022-10-28T11:03:38;24.30;62.10
39325;DHT22;25037;49.488;9.900;2022-10-28T11:06:05;24.50;61.30
39325;DHT22;25037;49.488;9.900;2022-10-28T11:08:37;24.50;62.10
39325;DHT22;25037;49.488;9.900;2022-10-28T11:11:29;24.60;61.30
39325;DHT22;25037;49.488;9.900;2022-10-28T11:16:49;24.70;60.60
39325;DHT22;25037;49.488;9.900;2022-10-28T11:19:35;24.70;59.80
39325;DHT22;25037;49.488;9.900;2022-10-28T11:30:45;24.70;57.80
39325;DHT22;25037;49.488;9.900;2022-10-28T11:33:19;24.80;58.00
39325;DHT22;25037;49.488;9.900;2022-10-28T11:36:00;24.80;58.00
39325;DHT22;25037;49.488;9.900;2022-10-28T11:43:56;25.00;57.20
39325;DHT22;25037;49.488;9.900;2022-10-28T11:49:21;25.10;57.20
39325;DHT22;25037;49.488;9.900;2022-10-28T11:57:13;25.20;56.00
39325;DHT22;25037;49.488;9.900;2022-10-28T11:59:55;25.30;56.00
39325;DHT22;25037;49.488;9.900;2022-10-28T12:07:48;25.50;55.30
39325;DHT22;25037;49.488;9.900;2022-10-28T12:19:11;25.80;55.90
39325;DHT22;25037;49.488;9.900;2022-10-28T12:22:05;25.90;55.80
39325;DHT22;25037;49.488;9.900;2022-10-28T12:24:35;26.00;55.00
39325;DHT22;25037;49.488;9.900;2022-10-28T12:30:16;26.10;54.40
39325;DHT22;25037;49.488;9.900;2022-10-28T12:32:57;26.10;53.90
39325;DHT22;25037;49.488;9.900;2022-10-28T12:35:29;26.10;53.90
39325;DHT22;25037;49.488;9.900;2022-10-28T12:38:24;26.00;53.90
39325;DHT22;25037;49.488;9.900;2022-10-28T12:40:58;26.00;53.40
39325;DHT22;25037;49.488;9.900;2022-10-28T12:43:31;26.00;53.90
39325;DHT22;25037;49.488;9.900;2022-10-28T12:45:58;26.00;52.70
39325;DHT22;25037;49.488;9.900;2022-10-28T12:48:34;26.00;52.90
39325;DHT22;25037;49.488;9.900;2022-10-28T12:51:09;26.00;52.10
39325;DHT22;25037;49.488;9.900;2022-10-28T12:53:46;26.00;52.40
39325;DHT22;25037;49.488;9.900;2022-10-28T12:56:19;26.00;51.50
39325;DHT22;25037;49.488;9.900;2022-10-28T13:01:45;25.90;50.70
39325;DHT22;25037;49.488;9.900;2022-10-28T13:04:11;25.90;51.80
39325;DHT22;25037;49.488;9.900;2022-10-28T13:17:39;26.20;51.10
39325;DHT22;25037;49.488;9.900;2022-10-28T13:20:46;26.30;51.30
39325;DHT22;25037;49.488;9.900;2022-10-28T13:26:05;26.30;51.10
39325;DHT22;25037;49.488;9.900;2022-10-28T13:28:45;26.30;51.40
39325;DHT22;25037;49.488;9.900;2022-10-28T13:31:11;26.30;50.70
39325;DHT22;25037;49.488;9.900;2022-10-28T13:33:52;26.30;50.80
39325;DHT22;25037;49.488;9.900;2022-10-28T13:36:28;26.30;50.50
39325;DHT22;25037;49.488;9.900;2022-10-28T13:38:56;26.30;51.00
39325;DHT22;25037;49.488;9.900;2022-10-28T13:41:32;26.20;51.20
39325;DHT22;25037;49.488;9.900;2022-10-28T13:44:12;26.20;50.60
39325;DHT22;25037;49.488;9.900;2022-10-28T13:49:32;26.20;50.80
39325;DHT22;25037;49.488;9.900;2022-10-28T13:57:31;26.20;51.50
39325;DHT22;25037;49.488;9.900;2022-10-28T14:03:20;26.10;52.30
39325;DHT22;25037;49.488;9.900;2022-10-28T14:08:29;25.80;52.00
39325;DHT22;25037;49.488;9.900;2022-10-28T14:11:02;25.80;51.80
39325;DHT22;25037;49.488;9.900;2022-10-28T14:13:29;25.70;52.40
39325;DHT22;25037;49.488;9.900;2022-10-28T14:16:23;25.60;52.50
39325;DHT22;25037;49.488;9.900;2022-10-28T14:19:03;25.40;52.40
39325;DHT22;25037;49.488;9.900;2022-10-28T14:24:40;25.30;53.40
39325;DHT22;25037;49.488;9.900;2022-10-28T14:29:52;25.10;54.40
39325;DHT22;25037;49.488;9.900;2022-10-28T14:32:41;25.00;54.60
39325;DHT22;25037;49.488;9.900;2022-10-28T14:43:09;24.70;56.00
39325;DHT22;25037;49.488;9.900;2022-10-28T14:46:01;24.50;56.50
39325;DHT22;25037;49.488;9.900;2022-10-28T14:48:49;24.50;56.90
39325;DHT22;25037;49.488;9.900;2022-10-28T14:51:23;24.40;57.50
39325;DHT22;25037;49.488;9.900;2022-10-28T14:53:58;24.30;58.00
39325;DHT22;25037;49.488;9.900;2022-10-28T14:56:27;24.20;58.20
39325;DHT22;25037;49.488;9.900;2022-10-28T14:58:57;24.10;58.90
39325;DHT22;25037;49.488;9.900;2022-10-28T15:01:32;24.00;59.30
39325;DHT22;25037;49.488;9.900;2022-10-28T15:04:05;23.90;59.40
39325;DHT22;25037;49.488;9.900;2022-10-28T15:06:35;23.80;59.60
39325;DHT22;25037;49.488;9.900;2022-10-28T15:09:21;23.70;59.60
39325;DHT22;25037;49.488;9.900;2022-10-28T15:11:51;23.60;60.30
39325;DHT22;25037;49.488;9.900;2022-10-28T15:14:29;23.60;60.70
39325;DHT22;25037;49.488;9.900;2022-10-28T15:16:55;23.40;61.10
39325;DHT22;25037;49.488;9.900;2022-10-28T15:19:26;23.30;61.10
39325;DHT22;25037;49.488;9.900;2022-10-28T15:22:19;23.20;61.60
39325;DHT22;25037;49.488;9.900;2022-10-28T15:25:03;23.20;61.80
39325;DHT22;25037;49.488;9.900;2022-10-28T15:27:31;23.10;62.30
39325;DHT22;25037;49.488;9.900;2022-10-28T15:29:57;22.90;62.60
39325;DHT22;25037;49.488;9.900;2022-10-28T15:32:31;22.90;62.90
39325;DHT22;25037;49.488;9.900;2022-10-28T15:34:58;22.70;63.30
39325;DHT22;25037;49.488;9.900;2022-10-28T15:37:28;22.70;63.50
39325;DHT22;25037;49.488;9.900;2022-10-28T15:40:27;22.60;63.90
39325;DHT22;25037;49.488;9.900;2022-10-28T15:43:06;22.50;63.90
39325;DHT22;25037;49.488;9.900;2022-10-28T15:45:41;22.50;63.90
39325;DHT22;25037;49.488;9.900;2022-10-28T15:48:12;22.30;63.90
39325;DHT22;25037;49.488;9.900;2022-10-28T15:50:39;22.30;64.10
39325;DHT22;25037;49.488;9.900;2022-10-28T15:55:38;22.20;64.20
39325;DHT22;25037;49.488;9.900;2022-10-28T16:03:44;21.90;64.20
39325;DHT22;25037;49.488;9.900;2022-10-28T16:06:26;21.80;64.40
39325;DHT22;25037;49.488;9.900;2022-10-28T16:09:28;21.80;64.70
39325;DHT22;25037;49.488;9.900;2022-10-28T16:11:59;21.60;64.90
39325;DHT22;25037;49.488;9.900;2022-10-28T16:14:41;21.50;65.10
39325;DHT22;25037;49.488;9.900;2022-10-28T16:17:24;21.40;65.40
39325;DHT22;25037;49.488;9.900;2022-10-28T16:20:02;21.30;65.40
39325;DHT22;25037;49.488;9.900;2022-10-28T16:22:29;21.30;65.60
39325;DHT22;25037;49.488;9.900;2022-10-28T16:24:55;21.20;65.70
39325;DHT22;25037;49.488;9.900;2022-10-28T16:27:22;21.20;65.70
39325;DHT22;25037;49.488;9.900;2022-10-28T16:29:49;21.20;65.80
39325;DHT22;25037;49.488;9.900;2022-10-28T16:32:16;21.10;65.90
39325;DHT22;25037;49.488;9.900;2022-10-28T16:34:42;21.10;66.10
39325;DHT22;25037;49.488;9.900;2022-10-28T16:37:23;21.10;66.20
39325;DHT22;25037;49.488;9.900;2022-10-28T16:39:49;21.00;66.30
39325;DHT22;25037;49.488;9.900;2022-10-28T16:42:15;20.90;66.40
39325;DHT22;25037;49.488;9.900;2022-10-28T16:44:40;20.80;66.40
39325;DHT22;25037;49.488;9.900;2022-10-28T16:47:14;20.80;66.50
39325;DHT22;25037;49.488;9.900;2022-10-28T16:49:40;20.80;66.60
39325;DHT22;25037;49.488;9.900;2022-10-28T16:52:21;20.70;66.60
39325;DHT22;25037;49.488;9.900;2022-10-28T16:54:48;20.70;66.80
39325;DHT22;25037;49.488;9.900;2022-10-28T16:57:14;20.60;66.80
39325;DHT22;25037;49.488;9.900;2022-10-28T16:59:40;20.60;67.00
39325;DHT22;25037;49.488;9.900;2022-10-28T17:02:26;20.50;67.10
39325;DHT22;25037;49.488;9.900;2022-10-28T17:04:52;20.50;67.30
39325;DHT22;25037;49.488;9.900;2022-10-28T17:07:18;20.40;67.40
39325;DHT22;25037;49.488;9.900;2022-10-28T17:09:44;20.30;67.50
39325;DHT22;25037;49.488;9.900;2022-10-28T17:12:14;20.30;67.50
39325;DHT22;25037;49.488;9.900;2022-10-28T17:14:40;20.20;67.70
39325;DHT22;25037;49.488;9.900;2022-10-28T17:17:06;20.10;67.70
39325;DHT22;25037;49.488;9.900;2022-10-28T17:19:31;20.10;67.80
39325;DHT22;25037;49.488;9.900;2022-10-28T17:21:57;20.10;67.90
39325;DHT22;25037;49.488;9.900;2022-10-28T17:24:23;20.00;67.90
39325;DHT22;25037;49.488;9.900;2022-10-28T17:26:48;19.90;68.10
39325;DHT22;25037;49.488;9.900;2022-10-28T17:29:15;19.90;68.20
39325;DHT22;25037;49.488;9.900;2022-10-28T17:31:41;19.80;68.30
39325;DHT22;25037;49.488;9.900;2022-10-28T17:34:08;19.80;68.30
39325;DHT22;25037;49.488;9.900;2022-10-28T17:36:34;19.80;68.40
39325;DHT22;25037;49.488;9.900;2022-10-28T17:38:59;19.80;68.60
39325;DHT22;25037;49.488;9.900;2022-10-28T17:41:25;19.70;68.70
39325;DHT22;25037;49.488;9.900;2022-10-28T17:43:52;19.70;68.80
39325;DHT22;25037;49.488;9.900;2022-10-28T17:46:17;19.60;68.80
39325;DHT22;25037;49.488;9.900;2022-10-28T17:48:43;19.50;68.90
39325;DHT22;25037;49.488;9.900;2022-10-28T17:51:09;19.50;69.00
39325;DHT22;25037;49.488;9.900;2022-10-28T17:53:34;19.50;69.10
39325;DHT22;25037;49.488;9.900;2022-10-28T17:56:02;19.30;69.30
39325;DHT22;25037;49.488;9.900;2022-10-28T17:58:28;19.30;69.40
39325;DHT22;25037;49.488;9.900;2022-10-28T18:01:01;19.30;69.50
39325;DHT22;25037;49.488;9.900;2022-10-28T18:03:28;19.20;69.70
39325;DHT22;25037;49.488;9.900;2022-10-28T18:05:54;19.10;69.70
39325;DHT22;25037;49.488;9.900;2022-10-28T18:08:20;19.10;69.80
39325;DHT22;25037;49.488;9.900;2022-10-28T18:10:53;19.00;69.80
39325;DHT22;25037;49.488;9.900;2022-10-28T18:13:24;19.00;70.00
39325;DHT22;25037;49.488;9.900;2022-10-28T18:15:50;18.90;70.00
39325;DHT22;25037;49.488;9.900;2022-10-28T18:18:15;18.80;70.10